サンティアゴ の空港の天気 - METARとTAF

アルトゥーロ・メリノ・ベニテス国際空港(サンティアゴ) ( SCEL / SCL ) - チリ サンティアゴ
飛行場実況気象(Metar)
観測時間02/17 11:00 CLST (02/17 14:00 UTC)
風向・風速南南東 2m/s
視程8000m
天気現象
なし
気温20℃
湿度68%
気圧1015hPa
METARSCEL 171400Z 15004KT 080V200 8000 NSC 20/14 Q1015 NOSIG
過去の天気等 Google飛行場航空写真 Wunderground天気予報

過去48時間のMETAR

飛行場予報(TAF)
発表時間: 2/17 07:00 CLST (2/17 10:00 UTC)
予報対象時間: 17日9時 CLST ~ 18日9時 CLST
風向・風速南南東 3m/s
視程7000m
なし
17日9時 CLST ~ 17日11時 CLST に一時的に
視程10km以上
なし
17日12時 CLST ~ 17日14時 CLST に徐々に
風向・風速南 4m/s
17日15時 CLST ~ 17日17時 CLST に徐々に
風向・風速南南西 6m/s
17日23時 CLST ~ 18日1時 CLST に徐々に
風向・風速南南東 3m/s
TAF SCEL 171000Z 1712/1812 15005KT 7000 NSC TX30/1719Z TN14/1811Z
TEMPO 1712/1714 CAVOK
BECMG 1715/1717 17008KT
BECMG 1718/1720 20012KT
BECMG 1802/1804 16005KT